createdAt,value
2018-07-20T00:00:43.857Z,51.40
2018-07-20T00:05:43.609Z,51.30
2018-07-20T00:08:13.555Z,50.70
2018-07-20T00:10:44.451Z,50.40
2018-07-20T00:13:14.434Z,50.30
2018-07-20T00:15:45.753Z,50.70
2018-07-20T00:18:15.751Z,50.70
2018-07-20T00:20:45.778Z,51.10
2018-07-20T00:23:15.754Z,51.70
2018-07-20T00:25:45.937Z,51.30
2018-07-20T00:30:46.254Z,51.50
2018-07-20T00:33:16.244Z,51.40
2018-07-20T00:35:46.213Z,51.80
2018-07-20T00:40:45.964Z,52.20
2018-07-20T00:43:15.917Z,52.30
2018-07-20T00:45:46.027Z,52.20
2018-07-20T00:48:16.117Z,52.40
2018-07-20T00:50:46.143Z,52.60
2018-07-20T00:53:16.181Z,52.90
2018-07-20T00:55:46.154Z,52.40
2018-07-20T00:58:16.163Z,52.60
2018-07-20T01:00:46.235Z,52.90
2018-07-20T01:03:16.285Z,53.20
2018-07-20T01:05:46.311Z,53.60
2018-07-20T01:08:16.357Z,53.60
2018-07-20T01:10:46.341Z,53.60
2018-07-20T01:15:46.074Z,54.60
2018-07-20T01:18:16.061Z,54.70
2018-07-20T01:20:46.145Z,55.10
2018-07-20T01:23:16.117Z,54.90
2018-07-20T01:25:46.124Z,55.10
2018-07-20T01:28:16.078Z,55.00
2018-07-20T01:30:46.127Z,54.90
2018-07-20T01:33:16.144Z,55.20
2018-07-20T01:35:46.160Z,55.20
2018-07-20T01:38:16.167Z,55.60
2018-07-20T01:40:46.175Z,56.00
2018-07-20T01:45:45.953Z,56.40
2018-07-20T01:50:45.662Z,57.20
2018-07-20T01:53:15.791Z,57.20
2018-07-20T01:55:45.845Z,57.00
2018-07-20T01:58:15.887Z,56.90
2018-07-20T02:00:45.900Z,56.70
2018-07-20T02:03:15.968Z,56.60
2018-07-20T02:05:46.038Z,56.80
2018-07-20T02:08:16.093Z,57.00
2018-07-20T02:10:46.079Z,56.90
2018-07-20T02:13:16.119Z,57.00
2018-07-20T02:15:46.134Z,57.10
2018-07-20T02:18:16.129Z,57.10
2018-07-20T02:25:46.386Z,57.70
2018-07-20T02:28:16.510Z,57.70
2018-07-20T02:30:46.563Z,57.90
2018-07-20T02:35:46.290Z,58.30
2018-07-20T02:40:45.931Z,58.50
2018-07-20T02:43:15.892Z,58.60
2018-07-20T02:45:46.031Z,58.60
2018-07-20T02:48:16.030Z,58.40
2018-07-20T02:50:46.109Z,58.50
2018-07-20T02:53:16.199Z,58.60
2018-07-20T02:55:46.238Z,58.70
2018-07-20T02:58:16.525Z,58.60
2018-07-20T03:00:46.523Z,58.60
2018-07-20T03:03:16.556Z,58.80
2018-07-20T03:05:46.641Z,58.80
2018-07-20T03:08:16.613Z,58.90
2018-07-20T03:10:46.648Z,59.00
2018-07-20T03:13:16.759Z,58.60
2018-07-20T03:15:46.746Z,58.80
2018-07-20T03:18:16.823Z,58.90
2018-07-20T03:20:46.903Z,59.20
2018-07-20T03:23:16.931Z,59.00
2018-07-20T03:25:46.929Z,59.20
2018-07-20T03:28:16.995Z,59.20
2018-07-20T03:30:47.705Z,59.90
2018-07-20T03:33:17.718Z,59.40
2018-07-20T03:35:47.823Z,59.40
2018-07-20T03:38:17.789Z,59.50
2018-07-20T03:40:47.794Z,59.70
2018-07-20T03:43:17.807Z,59.80
2018-07-20T03:45:47.866Z,60.10
2018-07-20T03:48:17.925Z,60.20
2018-07-20T03:50:47.937Z,60.20
2018-07-20T03:53:17.913Z,60.20
2018-07-20T03:55:47.876Z,60.20
2018-07-20T03:58:17.830Z,60.40
2018-07-20T04:03:17.558Z,60.40
2018-07-20T04:05:47.657Z,60.30
2018-07-20T04:10:47.357Z,59.80
2018-07-20T04:18:17.031Z,59.10
2018-07-20T04:20:46.985Z,58.80
2018-07-20T04:23:17.049Z,58.60
2018-07-20T04:28:16.814Z,58.30
2018-07-20T04:30:46.826Z,58.10
2018-07-20T04:33:17.464Z,58.30
2018-07-20T04:35:47.574Z,58.10
2018-07-20T04:38:17.541Z,58.40
2018-07-20T04:43:17.255Z,58.00
2018-07-20T04:45:47.258Z,57.90
2018-07-20T04:48:17.281Z,57.80
2018-07-20T04:50:47.275Z,57.40
2018-07-20T04:53:17.398Z,57.00
2018-07-20T04:55:47.455Z,56.70
2018-07-20T04:58:17.445Z,57.00
2018-07-20T05:00:47.527Z,55.90
2018-07-20T05:05:47.219Z,54.90
2018-07-20T05:08:17.193Z,54.90
2018-07-20T05:10:47.261Z,54.70
2018-07-20T05:13:17.278Z,54.50
2018-07-20T05:15:47.426Z,54.90
2018-07-20T05:18:17.477Z,55.00
2018-07-20T05:20:47.494Z,54.70
2018-07-20T05:23:17.548Z,54.10
2018-07-20T05:25:47.521Z,53.70
2018-07-20T05:28:17.597Z,53.50
2018-07-20T05:30:47.583Z,53.50
2018-07-20T05:33:17.622Z,53.60
2018-07-20T05:35:48.381Z,53.70
2018-07-20T05:38:18.674Z,52.50
2018-07-20T05:40:48.860Z,52.80
2018-07-20T05:48:18.305Z,50.30
2018-07-20T05:50:48.368Z,51.10
2018-07-20T05:53:18.360Z,50.00
2018-07-20T05:55:48.355Z,49.70
2018-07-20T05:58:18.409Z,50.50
2018-07-20T06:00:48.379Z,49.90
2018-07-20T06:03:18.358Z,49.20
2018-07-20T06:08:18.088Z,48.30
2018-07-20T06:10:48.077Z,48.10
2018-07-20T06:13:18.020Z,46.70
2018-07-20T06:15:47.993Z,47.30
2018-07-20T06:18:18.030Z,46.60
2018-07-20T06:20:47.977Z,46.60
2018-07-20T06:23:21.909Z,45.30
2018-07-20T06:25:52.047Z,44.20
2018-07-20T06:28:22.190Z,44.20
2018-07-20T06:33:21.906Z,43.90
2018-07-20T06:35:51.996Z,43.00
2018-07-20T06:38:21.985Z,43.80
2018-07-20T06:40:51.991Z,43.00
2018-07-20T06:43:21.971Z,42.20
2018-07-20T06:45:52.060Z,42.50
2018-07-20T06:48:22.114Z,42.10
2018-07-20T06:50:52.113Z,42.10
2018-07-20T06:53:22.082Z,41.60
2018-07-20T06:55:52.203Z,41.60
2018-07-20T06:58:22.153Z,41.00
2018-07-20T07:00:52.175Z,40.40
2018-07-20T07:03:22.128Z,41.10
2018-07-20T07:05:52.253Z,41.10
2018-07-20T07:08:22.309Z,40.80
2018-07-20T07:10:52.310Z,41.10
2018-07-20T07:13:22.366Z,42.50
2018-07-20T07:15:52.387Z,41.40
2018-07-20T07:18:22.397Z,41.50
2018-07-20T07:20:52.481Z,40.50
2018-07-20T07:23:22.425Z,40.60
2018-07-20T07:25:52.683Z,40.70
2018-07-20T07:28:22.657Z,39.90
2018-07-20T07:30:52.620Z,40.00
2018-07-20T07:33:22.694Z,39.90
2018-07-20T07:35:52.831Z,39.30
2018-07-20T07:38:22.766Z,39.50
2018-07-20T07:40:52.815Z,39.10
2018-07-20T07:43:22.851Z,38.40
2018-07-20T07:45:52.849Z,38.50
2018-07-20T07:48:22.829Z,38.70
2018-07-20T07:50:52.854Z,38.60
2018-07-20T07:53:22.917Z,38.00
2018-07-20T07:55:52.909Z,37.50
2018-07-20T07:58:22.921Z,38.90
2018-07-20T08:00:52.931Z,37.90
2018-07-20T08:05:52.726Z,37.50
2018-07-20T08:13:22.134Z,36.50
2018-07-20T08:15:52.215Z,35.50
2018-07-20T08:18:22.112Z,35.70
2018-07-20T08:20:52.210Z,35.60
2018-07-20T08:23:22.185Z,35.00
2018-07-20T08:25:52.197Z,34.40
2018-07-20T08:28:22.190Z,34.40
2018-07-20T08:30:52.257Z,34.50
2018-07-20T08:33:22.264Z,34.50
2018-07-20T08:35:52.276Z,33.60
2018-07-20T08:38:22.249Z,34.20
2018-07-20T08:40:52.225Z,34.10
2018-07-20T08:45:51.934Z,33.30
2018-07-20T08:48:21.931Z,32.20
2018-07-20T08:50:51.962Z,32.80
2018-07-20T08:53:22.004Z,33.30
2018-07-20T08:55:52.043Z,31.90
2018-07-20T08:58:22.225Z,31.70
2018-07-20T09:00:52.214Z,31.70
2018-07-20T09:03:22.232Z,32.00
2018-07-20T09:05:52.196Z,31.60
2018-07-20T09:08:22.382Z,31.90
2018-07-20T09:10:52.421Z,31.90
2018-07-20T09:13:22.502Z,32.60
2018-07-20T09:15:52.509Z,32.20
2018-07-20T09:18:22.632Z,32.10
2018-07-20T09:20:52.722Z,31.80
2018-07-20T09:23:22.728Z,31.60
2018-07-20T09:25:52.750Z,31.50
2018-07-20T09:30:52.536Z,31.70
2018-07-20T09:35:52.198Z,30.40
2018-07-20T09:38:22.242Z,31.20
2018-07-20T09:40:52.208Z,30.50
2018-07-20T09:45:52.354Z,30.50
2018-07-20T09:48:22.337Z,30.10
2018-07-20T09:50:52.439Z,30.50
2018-07-20T09:53:22.450Z,30.50
2018-07-20T09:55:52.446Z,31.20
2018-07-20T09:58:22.446Z,29.40
2018-07-20T10:00:52.980Z,30.00
2018-07-20T10:03:23.190Z,30.50
2018-07-20T10:05:53.197Z,30.60
2018-07-20T10:08:23.252Z,30.70
2018-07-20T10:10:53.325Z,29.60
2018-07-20T10:13:23.314Z,29.70
2018-07-20T10:15:53.286Z,30.30
2018-07-20T10:18:23.314Z,29.90
2018-07-20T10:20:53.337Z,29.80
2018-07-20T10:23:23.326Z,29.40
2018-07-20T10:25:53.381Z,29.60
2018-07-20T10:28:23.379Z,30.00
2018-07-20T10:33:23.051Z,30.50
2018-07-20T10:35:53.054Z,29.50
2018-07-20T10:38:23.004Z,29.60
2018-07-20T10:40:52.952Z,29.40
2018-07-20T10:43:22.958Z,29.70
2018-07-20T10:45:52.938Z,28.50
2018-07-20T10:48:22.916Z,28.60
2018-07-20T10:50:53.009Z,29.10
2018-07-20T10:53:22.986Z,28.70
2018-07-20T10:55:53.099Z,29.10
2018-07-20T10:58:23.084Z,28.90
2018-07-20T11:00:53.121Z,28.90
2018-07-20T11:03:23.125Z,28.20
2018-07-20T11:05:53.146Z,28.70
2018-07-20T11:10:52.989Z,29.20
2018-07-20T11:13:22.985Z,28.50
2018-07-20T11:15:53.022Z,29.30
2018-07-20T11:18:23.012Z,28.40
2018-07-20T11:20:53.013Z,27.70
2018-07-20T11:23:23.010Z,28.10
2018-07-20T11:25:53.678Z,28.10
2018-07-20T11:28:23.657Z,28.40
2018-07-20T11:30:53.644Z,27.40
2018-07-20T11:33:23.638Z,27.70
2018-07-20T11:35:53.694Z,28.00
2018-07-20T11:38:23.695Z,28.30
2018-07-20T11:40:53.731Z,28.10
2018-07-20T11:43:23.759Z,27.60
2018-07-20T11:45:53.922Z,28.20
2018-07-20T11:48:23.970Z,28.10
2018-07-20T11:50:54.061Z,28.00
2018-07-20T11:53:24.082Z,27.80
2018-07-20T11:55:54.068Z,28.70
2018-07-20T11:58:24.086Z,28.10
2018-07-20T12:00:54.058Z,28.00
2018-07-20T12:03:24.118Z,27.40
2018-07-20T12:05:54.158Z,27.90
2018-07-20T12:08:24.169Z,28.20
2018-07-20T12:13:23.967Z,27.70
2018-07-20T12:16:00.656Z,27.60
2018-07-20T12:18:30.709Z,27.60
2018-07-20T12:21:00.763Z,27.60
2018-07-20T12:23:30.714Z,27.70
2018-07-20T12:26:00.902Z,27.70
2018-07-20T12:28:30.836Z,28.10
2018-07-20T12:31:00.863Z,28.00
2018-07-20T12:33:30.881Z,28.30
2018-07-20T12:36:00.907Z,27.90
2018-07-20T12:38:30.947Z,28.60
2018-07-20T12:41:00.934Z,27.60
2018-07-20T12:43:30.910Z,28.20
2018-07-20T12:46:00.995Z,28.30
2018-07-20T12:48:30.997Z,27.30
2018-07-20T12:51:01.038Z,28.30
2018-07-20T12:53:31.083Z,28.20
2018-07-20T12:56:01.103Z,28.90
2018-07-20T12:58:31.282Z,28.40
2018-07-20T13:01:01.341Z,28.30
2018-07-20T13:03:31.309Z,28.00
2018-07-20T13:06:01.375Z,26.60
2018-07-20T13:08:31.358Z,26.30
2018-07-20T13:11:01.487Z,25.70
2018-07-20T13:13:31.537Z,26.30
2018-07-20T13:16:01.570Z,26.30
2018-07-20T13:18:31.554Z,25.40
2018-07-20T13:21:01.595Z,26.10
2018-07-20T13:23:31.569Z,25.60
2018-07-20T13:28:31.370Z,25.40
2018-07-20T13:31:01.366Z,25.80
2018-07-20T13:33:31.359Z,25.50
2018-07-20T13:36:01.425Z,25.30
2018-07-20T13:38:31.425Z,25.20
2018-07-20T13:41:01.406Z,24.70
2018-07-20T13:43:31.448Z,24.80
2018-07-20T13:46:01.500Z,24.40
2018-07-20T13:48:31.558Z,24.20
2018-07-20T13:51:01.513Z,24.20
2018-07-20T13:53:31.570Z,24.20
2018-07-20T13:56:01.566Z,24.10
2018-07-20T13:58:31.674Z,24.10
2018-07-20T14:01:01.671Z,24.20
2018-07-20T14:03:31.639Z,24.10
2018-07-20T14:06:01.630Z,24.00
2018-07-20T14:11:01.294Z,24.00
2018-07-20T14:16:01.060Z,24.50
2018-07-20T14:18:31.080Z,24.20
2018-07-20T14:21:01.132Z,24.20
2018-07-20T14:23:31.345Z,24.30
2018-07-20T14:26:01.371Z,24.30
2018-07-20T14:28:31.441Z,24.40
2018-07-20T14:31:01.650Z,23.50
2018-07-20T14:33:31.689Z,24.30
2018-07-20T14:36:01.682Z,24.40
2018-07-20T14:38:31.711Z,25.60
2018-07-20T14:41:01.680Z,26.10
2018-07-20T14:43:31.713Z,26.10
2018-07-20T14:46:01.733Z,26.60
2018-07-20T14:48:31.824Z,25.70
2018-07-20T14:51:01.869Z,25.90
2018-07-20T14:53:31.889Z,26.50
2018-07-20T14:56:02.008Z,27.00
2018-07-20T14:58:32.040Z,27.00
2018-07-20T15:01:02.065Z,27.20
2018-07-20T15:03:32.151Z,27.10
2018-07-20T15:06:03.062Z,27.10
2018-07-20T15:08:33.168Z,26.90
2018-07-20T15:11:03.184Z,26.60
2018-07-20T15:13:33.244Z,27.40
2018-07-20T15:18:33.162Z,27.40
2018-07-20T15:21:03.166Z,27.30
2018-07-20T15:23:33.271Z,27.40
2018-07-20T15:26:03.229Z,27.00
2018-07-20T15:28:33.243Z,26.90
2018-07-20T15:31:03.258Z,26.40
2018-07-20T15:36:02.986Z,26.20
2018-07-20T15:38:33.060Z,26.80
2018-07-20T15:41:03.008Z,26.10
2018-07-20T15:43:32.996Z,26.10
2018-07-20T15:46:06.316Z,25.70
2018-07-20T15:48:33.017Z,25.30
2018-07-20T15:51:03.008Z,25.90
2018-07-20T15:56:02.792Z,25.90
2018-07-20T15:58:32.786Z,25.30
2018-07-20T16:01:02.848Z,25.30
2018-07-20T16:03:32.907Z,25.30
2018-07-20T16:06:03.045Z,25.40
2018-07-20T16:08:32.986Z,25.60
2018-07-20T16:11:03.007Z,25.00
2018-07-20T16:13:33.029Z,25.80
2018-07-20T16:16:03.080Z,25.60
2018-07-20T16:18:33.121Z,25.40
2018-07-20T16:21:03.137Z,26.40
2018-07-20T16:23:33.178Z,26.60
2018-07-20T16:26:03.257Z,26.60
2018-07-20T16:28:33.261Z,26.10
2018-07-20T16:31:03.258Z,26.00
2018-07-20T16:33:33.263Z,26.00
2018-07-20T16:36:03.304Z,26.40
2018-07-20T16:38:33.322Z,26.70
2018-07-20T16:41:03.348Z,27.10
2018-07-20T16:43:33.362Z,26.30
2018-07-20T16:46:03.353Z,26.60
2018-07-20T16:48:33.439Z,26.20
2018-07-20T16:53:33.069Z,26.40
2018-07-20T16:56:03.133Z,26.40
2018-07-20T16:58:33.134Z,26.50
2018-07-20T17:01:03.075Z,26.60
2018-07-20T17:03:33.056Z,26.60
2018-07-20T17:06:03.154Z,26.90
2018-07-20T17:08:33.110Z,27.00
2018-07-20T17:11:03.100Z,26.90
2018-07-20T17:13:33.097Z,26.80
2018-07-20T17:16:03.085Z,26.90
2018-07-20T17:18:33.211Z,26.90
2018-07-20T17:21:03.173Z,27.20
2018-07-20T17:23:33.158Z,27.70
2018-07-20T17:28:32.915Z,27.60
2018-07-20T17:31:02.934Z,27.60
2018-07-20T17:33:32.999Z,27.50
2018-07-20T17:36:02.999Z,27.30
2018-07-20T17:38:32.986Z,27.40
2018-07-20T17:41:03.511Z,27.60
2018-07-20T17:43:33.458Z,27.90
2018-07-20T17:46:03.450Z,27.80
2018-07-20T17:48:33.505Z,28.50
2018-07-20T17:51:03.579Z,27.70
2018-07-20T17:53:33.622Z,27.90
2018-07-20T17:56:03.659Z,28.30
2018-07-20T17:58:33.637Z,28.10
2018-07-20T18:01:03.622Z,28.00
2018-07-20T18:03:33.739Z,28.30
2018-07-20T18:06:03.772Z,28.30
2018-07-20T18:08:33.851Z,28.10
2018-07-20T18:11:03.992Z,28.20
2018-07-20T18:13:34.043Z,28.60
2018-07-20T18:16:04.093Z,28.60
2018-07-20T18:18:34.952Z,28.80
2018-07-20T18:21:05.000Z,28.90
2018-07-20T18:23:35.095Z,29.20
2018-07-20T18:26:05.114Z,28.90
2018-07-20T18:28:35.190Z,29.30
2018-07-20T18:31:05.229Z,29.40
2018-07-20T18:33:35.291Z,29.40
2018-07-20T18:36:05.256Z,29.80
2018-07-20T18:38:35.273Z,30.00
2018-07-20T18:41:05.299Z,30.40
2018-07-20T18:43:35.362Z,30.30
2018-07-20T18:46:05.745Z,30.30
2018-07-20T18:48:35.786Z,30.20
2018-07-20T18:51:05.861Z,30.00
2018-07-20T18:56:05.697Z,31.00
2018-07-20T18:58:35.746Z,30.90
2018-07-20T19:01:05.750Z,31.20
2018-07-20T19:06:05.949Z,31.70
2018-07-20T19:08:35.948Z,31.90
2018-07-20T19:13:35.586Z,32.60
2018-07-20T19:16:05.634Z,32.80
2018-07-20T19:18:35.873Z,33.10
2018-07-20T19:21:05.887Z,33.30
2018-07-20T19:23:36.020Z,33.30
2018-07-20T19:26:05.956Z,32.70
2018-07-20T19:28:36.380Z,32.90
2018-07-20T19:31:06.357Z,32.60
2018-07-20T19:33:36.429Z,32.60
2018-07-20T19:36:06.448Z,32.60
2018-07-20T19:38:36.408Z,32.70
2018-07-20T19:41:06.753Z,32.40
2018-07-20T19:43:36.740Z,32.60
2018-07-20T19:46:06.774Z,32.50
2018-07-20T19:48:36.777Z,32.70
2018-07-20T19:51:06.797Z,32.60
2018-07-20T19:53:36.801Z,33.10
2018-07-20T19:56:06.828Z,33.10
2018-07-20T19:58:36.820Z,32.90
2018-07-20T20:01:06.768Z,33.00
2018-07-20T20:03:36.802Z,33.00
2018-07-20T20:06:06.954Z,32.90
2018-07-20T20:08:36.902Z,33.10
2018-07-20T20:11:06.897Z,33.50
2018-07-20T20:13:36.900Z,33.40
2018-07-20T20:16:06.966Z,33.60
2018-07-20T20:18:37.213Z,33.50
2018-07-20T20:21:07.499Z,33.80
2018-07-20T20:23:37.522Z,34.20
2018-07-20T20:26:07.497Z,34.50
2018-07-20T20:31:07.306Z,35.20
2018-07-20T20:33:37.271Z,35.70
2018-07-20T20:36:07.270Z,35.20
2018-07-20T20:41:07.126Z,35.70
2018-07-20T20:43:37.192Z,35.30
2018-07-20T20:46:08.130Z,35.60
2018-07-20T20:48:38.128Z,35.60
2018-07-20T20:53:37.907Z,35.80
2018-07-20T20:58:37.576Z,36.50
2018-07-20T21:01:07.666Z,36.10
2018-07-20T21:03:37.705Z,36.60
2018-07-20T21:06:07.800Z,36.60
2018-07-20T21:08:37.744Z,36.50
2018-07-20T21:11:08.078Z,36.50
2018-07-20T21:13:38.151Z,36.40
2018-07-20T21:16:08.216Z,36.40
2018-07-20T21:21:07.938Z,36.10
2018-07-20T21:23:37.918Z,36.40
2018-07-20T21:26:07.938Z,35.50
2018-07-20T21:28:37.953Z,35.60
2018-07-20T21:31:08.122Z,35.80
2018-07-20T21:33:38.084Z,35.80
2018-07-20T21:36:08.227Z,36.20
2018-07-20T21:38:38.266Z,35.90
2018-07-20T21:41:08.279Z,36.20
2018-07-20T21:43:38.326Z,36.20
2018-07-20T21:48:37.995Z,36.10
2018-07-20T21:53:37.783Z,36.60
2018-07-20T21:58:37.579Z,37.80
2018-07-20T22:03:37.387Z,38.40
2018-07-20T22:06:07.486Z,38.90
2018-07-20T22:08:37.491Z,39.10
2018-07-20T22:11:07.675Z,39.60
2018-07-20T22:13:37.699Z,39.80
2018-07-20T22:16:07.826Z,40.40
2018-07-20T22:18:37.869Z,40.40
2018-07-20T22:21:07.882Z,39.90
2018-07-20T22:23:37.935Z,39.60
2018-07-20T22:26:07.974Z,38.60
2018-07-20T22:28:38.005Z,38.40
2018-07-20T22:33:37.685Z,38.40
2018-07-20T22:38:37.396Z,41.10
2018-07-20T22:41:07.496Z,41.10
2018-07-20T22:43:37.484Z,40.80
2018-07-20T22:46:08.114Z,41.70
2018-07-20T22:48:38.311Z,41.80
2018-07-20T22:51:08.388Z,43.10
2018-07-20T22:53:38.369Z,40.90
2018-07-20T22:56:08.382Z,41.40
2018-07-20T22:58:38.348Z,41.10
2018-07-20T23:01:08.355Z,41.20
2018-07-20T23:03:38.382Z,41.40
2018-07-20T23:06:08.371Z,41.50
2018-07-20T23:08:38.885Z,42.30
2018-07-20T23:11:08.969Z,42.00
2018-07-20T23:13:39.165Z,42.40
2018-07-20T23:16:09.201Z,42.50
2018-07-20T23:18:39.386Z,42.50
2018-07-20T23:21:09.398Z,44.00
2018-07-20T23:23:39.402Z,43.60
2018-07-20T23:26:09.409Z,43.60
2018-07-20T23:28:39.417Z,44.10
2018-07-20T23:31:09.439Z,44.20
2018-07-20T23:33:39.404Z,44.20
2018-07-20T23:36:09.427Z,44.20
2018-07-20T23:38:39.450Z,44.10
2018-07-20T23:41:09.519Z,44.70
2018-07-20T23:46:09.293Z,44.70
2018-07-20T23:48:39.307Z,44.40
2018-07-20T23:51:09.347Z,44.90
2018-07-20T23:53:39.357Z,45.30
2018-07-20T23:56:09.382Z,45.70
2018-07-20T23:58:39.426Z,45.90
